Osaka Airport, Japan

6:49 AM JST on August 26, 2016 (GMT +0900)
Osaka International | | Change Station

Elev 49 ft 34.78 °N, 135.44 °E | Updated 49 minutes ago

Scattered Clouds
Scattered Clouds
81 °F
Feels Like 83 °F
N
8
Wind Variable Wind from ENE

Today
High -- | Low -- °F
--% Chance of Precip.
Yesterday
High -- | Low -- °F
Precip. -- in
Pressure 29.68 in
Visibility 6.2 miles
Clouds Few 2000 ft
Scattered Clouds 7000 ft
Heat Index 83 °F
Dew Point 68 °F
Humidity 65%
Rainfall 0.00 in
Snow Depth Not available.
5:26 AM 6:32 PM
Last Quarter, 41% visible
METAR RJOO 252100Z 06007KT 9999 FEW020 SCT070 27/20 Q1005 RMK 1CU020 3AC070 A2970
Pressure 29.68 in
Visibility 6.2 miles
Clouds Few 2000 ft
Scattered Clouds 7000 ft
Heat Index 83 °F
Dew Point 68 °F
Humidity 65%
Rainfall 0.00 in
Snow Depth Not available.
5:26 AM 6:32 PM
Last Quarter, 41% visible
METAR RJOO 252100Z 06007KT 9999 FEW020 SCT070 27/20 Q1005 RMK 1CU020 3AC070 A2970

10-Day Weather Forecast

No radar image for this location.
×

Almanac

Astronomy

Aug. 26, 2016 Rise Set
Actual Time
Civil Twilight
Nautical Twilight
Astronomical Twilight
Moon
Length of Visible Light
Length of Day
Tomorrow will be .
, % of the Moon is Illuminated

Today's Extremes

Country Highs Country Lows

Community

WunderPhotos

Upload Photos

1,934,947 photos uploaded!

WunderBlog® & News

Nearby

Air Quality

  Air Quality AQ Index Pollutant
Not available.

Snow Depth

Station Depth Elevation

Earthquake Activity

City Distance Mag. Time & Date
Minimum magnitude displayed is 2.5.

Coastal Water Temperatures

Place Temperature

Stations

Nearby Weather Stations

Station Location Temp. Windchill Dew Point Humidity Wind Precip. Elev Updated Type